Terminal Aerodrome Forecast
Issued by NWS Mt. Holly, NJ

Home | Current Version | Previous Version | Text Only | Print | Product List | Glossary On
Versions: 1 2 3 4 5 6 7 8 9 10 11 12 13 14 15 16 17 18 19 20 21 22 23 24 25
000
FTUS41 KPHI 230800 AAB
TAFPHL
TAF AMD
KPHL 230800Z 2308/2412 05004KT 1/2SM FG OVC002
     FM231200 10004KT 6SM BR SCT002 BKN012
     FM231400 16006KT P6SM OVC025
     FM231700 15010KT P6SM OVC040
     FM240200 14012KT P6SM OVC025
     FM240900 16014KT 4SM RA BR OVC015=

USA.gov is the U.S. government's official web portal to all federal, state and local government web resources and services.